Aviation Digital Data Service (ADDS)

Output produced by METARs form (1848 UTC 18 April 2019)
found at http://www.aviationweather.gov/metar/data/
 
METAR text: LTBA 181820Z 01015KT 9999 SCT012 BKN025 09/07 Q1023 NOSIG RMK RWY17L 01014KT RWY05 36012KT RWY23 03015KT
Conditions at: LTBA (ISTANBUL/ATATURK, TR) observed 1820 UTC 18 April 2019
Temperature: 9.0°C (48°F)
Dewpoint: 7.0°C (45°F) [RH = 87%]
Pressure (altimeter): 30.21 inches Hg (1023.0 mb)
Winds: from the N (10 degrees) at 17 MPH (15 knots; 7.7 m/s)
Visibility: 6 or more miles (10+ km)
Ceiling: 2500 feet AGL
Clouds: scattered clouds at 1200 feet AGL
broken clouds at 2500 feet AGL
Weather: no significant weather observed at this time

METAR text: LTBA 181750Z 01013KT 9999 SCT012 BKN025 10/07 Q1023 NOSIG RMK RWY17L 02012KT 340V040 RWY05 36012KT RWY23 03014KT
Conditions at: LTBA (ISTANBUL/ATATURK, TR) observed 1750 UTC 18 April 2019
Temperature: 10.0°C (50°F)
Dewpoint: 7.0°C (45°F) [RH = 82%]
Pressure (altimeter): 30.21 inches Hg (1023.0 mb)
Winds: from the N (10 degrees) at 15 MPH (13 knots; 6.7 m/s)
Visibility: 6 or more miles (10+ km)
Ceiling: 2500 feet AGL
Clouds: scattered clouds at 1200 feet AGL
broken clouds at 2500 feet AGL
Weather: no significant weather observed at this time

METAR text: LTBA 181720Z 02013KT 9999 SCT013 BKN028 10/07 Q1022 NOSIG RMK RWY17L 03013KT RWY05 01016KT RWY23 04014KT
Conditions at: LTBA (ISTANBUL/ATATURK, TR) observed 1720 UTC 18 April 2019
Temperature: 10.0°C (50°F)
Dewpoint: 7.0°C (45°F) [RH = 82%]
Pressure (altimeter): 30.18 inches Hg (1022.0 mb)
Winds: from the NNE (20 degrees) at 15 MPH (13 knots; 6.7 m/s)
Visibility: 6 or more miles (10+ km)
Ceiling: 2800 feet AGL
Clouds: scattered clouds at 1300 feet AGL
broken clouds at 2800 feet AGL
Weather: no significant weather observed at this time

METAR text: LTBA 181650Z 03017KT 9999 SCT013 BKN028 10/07 Q1022 NOSIG RMK RWY17L 03013KT RWY05 01017KT RWY23 03016KT
Conditions at: LTBA (ISTANBUL/ATATURK, TR) observed 1650 UTC 18 April 2019
Temperature: 10.0°C (50°F)
Dewpoint: 7.0°C (45°F) [RH = 82%]
Pressure (altimeter): 30.18 inches Hg (1022.0 mb)
Winds: from the NNE (30 degrees) at 20 MPH (17 knots; 8.7 m/s)
Visibility: 6 or more miles (10+ km)
Ceiling: 2800 feet AGL
Clouds: scattered clouds at 1300 feet AGL
broken clouds at 2800 feet AGL
Weather: no significant weather observed at this time

METAR text: LTBA 181620Z 01011KT 9999 SCT015 BKN030 10/08 Q1022 NOSIG RMK RWY17L 01012KT RWY05 36012KT 330V040 RWY23 03012KT
Conditions at: LTBA (ISTANBUL/ATATURK, TR) observed 1620 UTC 18 April 2019
Temperature: 10.0°C (50°F)
Dewpoint: 8.0°C (46°F) [RH = 87%]
Pressure (altimeter): 30.18 inches Hg (1022.0 mb)
Winds: from the N (10 degrees) at 13 MPH (11 knots; 5.7 m/s)
Visibility: 6 or more miles (10+ km)
Ceiling: 3000 feet AGL
Clouds: scattered clouds at 1500 feet AGL
broken clouds at 3000 feet AGL
Weather: no significant weather observed at this time

METAR text: LTBA 181550Z 36013KT 9999 SCT017 BKN030 11/07 Q1022 NOSIG RMK RWY17L 02011KT 350V050 RWY05 35013KT RWY23 01011KT 340V040
Conditions at: LTBA (ISTANBUL/ATATURK, TR) observed 1550 UTC 18 April 2019
Temperature: 11.0°C (52°F)
Dewpoint: 7.0°C (45°F) [RH = 76%]
Pressure (altimeter): 30.18 inches Hg (1022.0 mb)
Winds: from the N (360 degrees) at 15 MPH (13 knots; 6.7 m/s)
Visibility: 6 or more miles (10+ km)
Ceiling: 3000 feet AGL
Clouds: scattered clouds at 1700 feet AGL
broken clouds at 3000 feet AGL
Weather: no significant weather observed at this time

METAR text: LTBA 181520Z 36015KT 9999 SCT017 BKN030 11/07 Q1021 NOSIG RMK RWY17L 01011KT RWY05 34011KT RWY23 01013KT
Conditions at: LTBA (ISTANBUL/ATATURK, TR) observed 1520 UTC 18 April 2019
Temperature: 11.0°C (52°F)
Dewpoint: 7.0°C (45°F) [RH = 76%]
Pressure (altimeter): 30.15 inches Hg (1021.0 mb)
Winds: from the N (360 degrees) at 17 MPH (15 knots; 7.7 m/s)
Visibility: 6 or more miles (10+ km)
Ceiling: 3000 feet AGL
Clouds: scattered clouds at 1700 feet AGL
broken clouds at 3000 feet AGL
Weather: no significant weather observed at this time

METAR text: LTBA 181450Z 36011KT 9999 BKN030 11/07 Q1021 NOSIG RMK RWY17L 01013KT RWY05 36013KT RWY23 02009KT 350V050
Conditions at: LTBA (ISTANBUL/ATATURK, TR) observed 1450 UTC 18 April 2019
Temperature: 11.0°C (52°F)
Dewpoint: 7.0°C (45°F) [RH = 76%]
Pressure (altimeter): 30.15 inches Hg (1021.0 mb)
Winds: from the N (360 degrees) at 13 MPH (11 knots; 5.7 m/s)
Visibility: 6 or more miles (10+ km)
Ceiling: 3000 feet AGL
Clouds: broken clouds at 3000 feet AGL
Weather: no significant weather observed at this time

METAR text: LTBA 181420Z 36017KT 9999 BKN030 12/07 Q1021 NOSIG RMK RWY17L 36014KT 340V040 RWY05 34015KT RWY23 02015KT 340V050
Conditions at: LTBA (ISTANBUL/ATATURK, TR) observed 1420 UTC 18 April 2019
Temperature: 12.0°C (54°F)
Dewpoint: 7.0°C (45°F) [RH = 71%]
Pressure (altimeter): 30.15 inches Hg (1021.0 mb)
Winds: from the N (360 degrees) at 20 MPH (17 knots; 8.7 m/s)
Visibility: 6 or more miles (10+ km)
Ceiling: 3000 feet AGL
Clouds: broken clouds at 3000 feet AGL
Weather: no significant weather observed at this time

METAR text: LTBA 181350Z 36016KT 9999 BKN030 13/06 Q1021 NOSIG RMK RWY17L 02013KT RWY05 34014KT 310V010 RWY23 02014KT
Conditions at: LTBA (ISTANBUL/ATATURK, TR) observed 1350 UTC 18 April 2019
Temperature: 13.0°C (55°F)
Dewpoint: 6.0°C (43°F) [RH = 62%]
Pressure (altimeter): 30.15 inches Hg (1021.0 mb)
Winds: from the N (360 degrees) at 18 MPH (16 knots; 8.2 m/s)
Visibility: 6 or more miles (10+ km)
Ceiling: 3000 feet AGL
Clouds: broken clouds at 3000 feet AGL
Weather: no significant weather observed at this time

METAR text: LTBA 181320Z 35016KT 320V020 9999 SCT030 13/05 Q1021 NOSIG RMK RWY17L 02012KT 350V050 RWY05 35012KT RWY23 01013KT 330V040
Conditions at: LTBA (ISTANBUL/ATATURK, TR) observed 1320 UTC 18 April 2019
Temperature: 13.0°C (55°F)
Dewpoint: 5.0°C (41°F) [RH = 58%]
Pressure (altimeter): 30.15 inches Hg (1021.0 mb)
Winds: from the N (350 degrees) at 18 MPH (16 knots; 8.2 m/s)
Visibility: 6 or more miles (10+ km)
Ceiling: at least 12,000 feet AGL
Clouds: scattered clouds at 3000 feet AGL
Weather: no significant weather observed at this time

METAR text: LTBA 181250Z 35015KT 9999 SCT030 BKN100 13/07 Q1021 NOSIG RMK RWY17L 01014KT RWY05 35012KT 310V020 RWY23 01014KT
Conditions at: LTBA (ISTANBUL/ATATURK, TR) observed 1250 UTC 18 April 2019
Temperature: 13.0°C (55°F)
Dewpoint: 7.0°C (45°F) [RH = 67%]
Pressure (altimeter): 30.15 inches Hg (1021.0 mb)
Winds: from the N (350 degrees) at 17 MPH (15 knots; 7.7 m/s)
Visibility: 6 or more miles (10+ km)
Ceiling: 10000 feet AGL
Clouds: scattered clouds at 3000 feet AGL
broken clouds at 10000 feet AGL
Weather: no significant weather observed at this time

METAR text: LTBA 181220Z 36014KT 340V040 9999 SCT030 BKN100 13/06 Q1021 NOSIG RMK RWY17L 01014KT 340V040 RWY05 35013KT 320V020 RWY23 01013KT 340V040
Conditions at: LTBA (ISTANBUL/ATATURK, TR) observed 1220 UTC 18 April 2019
Temperature: 13.0°C (55°F)
Dewpoint: 6.0°C (43°F) [RH = 62%]
Pressure (altimeter): 30.15 inches Hg (1021.0 mb)
Winds: from the N (360 degrees) at 16 MPH (14 knots; 7.2 m/s)
Visibility: 6 or more miles (10+ km)
Ceiling: 10000 feet AGL
Clouds: scattered clouds at 3000 feet AGL
broken clouds at 10000 feet AGL
Weather: no significant weather observed at this time

METAR text: LTBA 181150Z 36015KT 9999 BKN030 BKN100 13/07 Q1021 NOSIG RMK RWY17L 36013KT 330V030 RWY05 33014KT RWY23 36013KT 330V030
Conditions at: LTBA (ISTANBUL/ATATURK, TR) observed 1150 UTC 18 April 2019
Temperature: 13.0°C (55°F)
Dewpoint: 7.0°C (45°F) [RH = 67%]
Pressure (altimeter): 30.15 inches Hg (1021.0 mb)
Winds: from the N (360 degrees) at 17 MPH (15 knots; 7.7 m/s)
Visibility: 6 or more miles (10+ km)
Ceiling: 3000 feet AGL
Clouds: broken clouds at 3000 feet AGL
broken clouds at 10000 feet AGL
Weather: no significant weather observed at this time

METAR text: LTBA 181120Z 35014KT 9999 SCT023 BKN040 12/07 Q1022 NOSIG RMK RWY17L 36014KT RWY05 34011KT 300V360 RWY23 02011KT 350V050
Conditions at: LTBA (ISTANBUL/ATATURK, TR) observed 1120 UTC 18 April 2019
Temperature: 12.0°C (54°F)
Dewpoint: 7.0°C (45°F) [RH = 71%]
Pressure (altimeter): 30.18 inches Hg (1022.0 mb)
Winds: from the N (350 degrees) at 16 MPH (14 knots; 7.2 m/s)
Visibility: 6 or more miles (10+ km)
Ceiling: 4000 feet AGL
Clouds: scattered clouds at 2300 feet AGL
broken clouds at 4000 feet AGL
Weather: no significant weather observed at this time

METAR text: LTBA 181050Z 36013KT 9999 SCT017 BKN030 11/07 Q1022 NOSIG RMK RWY17L 01012KT RWY05 36012KT RWY23 01012KT
Conditions at: LTBA (ISTANBUL/ATATURK, TR) observed 1050 UTC 18 April 2019
Temperature: 11.0°C (52°F)
Dewpoint: 7.0°C (45°F) [RH = 76%]
Pressure (altimeter): 30.18 inches Hg (1022.0 mb)
Winds: from the N (360 degrees) at 15 MPH (13 knots; 6.7 m/s)
Visibility: 6 or more miles (10+ km)
Ceiling: 3000 feet AGL
Clouds: scattered clouds at 1700 feet AGL
broken clouds at 3000 feet AGL
Weather: no significant weather observed at this time

METAR text: LTBA 181020Z 34013KT 9999 SCT015 BKN030 11/08 Q1022 RESHRA NOSIG RMK RWY17L 35009KT 330V030 RWY05 34010KT RWY23 36011KT 330V030
Conditions at: LTBA (ISTANBUL/ATATURK, TR) observed 1020 UTC 18 April 2019
Temperature: 11.0°C (52°F)
Dewpoint: 8.0°C (46°F) [RH = 82%]
Pressure (altimeter): 30.18 inches Hg (1022.0 mb)
Winds: from the NNW (340 degrees) at 15 MPH (13 knots; 6.7 m/s)
Visibility: 6 or more miles (10+ km)
Ceiling: 3000 feet AGL
Clouds: scattered clouds at 1500 feet AGL
broken clouds at 3000 feet AGL
Weather: no significant weather observed at this time

METAR text: LTBA 180950Z 36014KT 9999 -SHRA SCT015 BKN030 11/08 Q1022 NOSIG RMK RWY17L 01014KT RWY05 36013KT RWY23 01011KT
Conditions at: LTBA (ISTANBUL/ATATURK, TR) observed 0950 UTC 18 April 2019
Temperature: 11.0°C (52°F)
Dewpoint: 8.0°C (46°F) [RH = 82%]
Pressure (altimeter): 30.18 inches Hg (1022.0 mb)
Winds: from the N (360 degrees) at 16 MPH (14 knots; 7.2 m/s)
Visibility: 6 or more miles (10+ km)
Ceiling: 3000 feet AGL
Clouds: scattered clouds at 1500 feet AGL
broken clouds at 3000 feet AGL
Weather: -SHRA  (light rain showers)

METAR text: LTBA 180920Z 35014KT 9999 FEW017 BKN030 12/06 Q1022 NOSIG RMK RWY17L 36013KT RWY05 36012KT RWY23 03012KT 350V050
Conditions at: LTBA (ISTANBUL/ATATURK, TR) observed 0920 UTC 18 April 2019
Temperature: 12.0°C (54°F)
Dewpoint: 6.0°C (43°F) [RH = 67%]
Pressure (altimeter): 30.18 inches Hg (1022.0 mb)
Winds: from the N (350 degrees) at 16 MPH (14 knots; 7.2 m/s)
Visibility: 6 or more miles (10+ km)
Ceiling: 3000 feet AGL
Clouds: few clouds at 1700 feet AGL
broken clouds at 3000 feet AGL
Weather: no significant weather observed at this time

METAR text: LTBA 180850Z 01013KT 9999 SCT017 BKN030 12/07 Q1022 NOSIG RMK RWY17L 01012KT RWY05 34012KT RWY23 35012KT
Conditions at: LTBA (ISTANBUL/ATATURK, TR) observed 0850 UTC 18 April 2019
Temperature: 12.0°C (54°F)
Dewpoint: 7.0°C (45°F) [RH = 71%]
Pressure (altimeter): 30.18 inches Hg (1022.0 mb)
Winds: from the N (10 degrees) at 15 MPH (13 knots; 6.7 m/s)
Visibility: 6 or more miles (10+ km)
Ceiling: 3000 feet AGL
Clouds: scattered clouds at 1700 feet AGL
broken clouds at 3000 feet AGL
Weather: no significant weather observed at this time

METAR text: LTBA 180820Z 35011KT 9999 SCT020 BKN035 12/08 Q1022 NOSIG RMK RWY17L 36012KT RWY05 36011KT 330V030 RWY23 36011KT 330V030
Conditions at: LTBA (ISTANBUL/ATATURK, TR) observed 0820 UTC 18 April 2019
Temperature: 12.0°C (54°F)
Dewpoint: 8.0°C (46°F) [RH = 76%]
Pressure (altimeter): 30.18 inches Hg (1022.0 mb)
Winds: from the N (350 degrees) at 13 MPH (11 knots; 5.7 m/s)
Visibility: 6 or more miles (10+ km)
Ceiling: 3500 feet AGL
Clouds: scattered clouds at 2000 feet AGL
broken clouds at 3500 feet AGL
Weather: no significant weather observed at this time

METAR text: LTBA 180750Z 35012KT 9999 SCT017 BKN035 10/08 Q1022 NOSIG RMK RWY17L 36012KT 330V030 RWY05 36011KT RWY23 02010KT 350V050
Conditions at: LTBA (ISTANBUL/ATATURK, TR) observed 0750 UTC 18 April 2019
Temperature: 10.0°C (50°F)
Dewpoint: 8.0°C (46°F) [RH = 87%]
Pressure (altimeter): 30.18 inches Hg (1022.0 mb)
Winds: from the N (350 degrees) at 14 MPH (12 knots; 6.2 m/s)
Visibility: 6 or more miles (10+ km)
Ceiling: 3500 feet AGL
Clouds: scattered clouds at 1700 feet AGL
broken clouds at 3500 feet AGL
Weather: no significant weather observed at this time

METAR text: LTBA 180720Z 36010KT 330V040 9999 FEW017 BKN035 11/07 Q1022 NOSIG RMK RWY17L 01008KT 320V040 RWY05 36008KT RWY23 01008KT 340V040
Conditions at: LTBA (ISTANBUL/ATATURK, TR) observed 0720 UTC 18 April 2019
Temperature: 11.0°C (52°F)
Dewpoint: 7.0°C (45°F) [RH = 76%]
Pressure (altimeter): 30.18 inches Hg (1022.0 mb)
Winds: from the N (360 degrees) at 12 MPH (10 knots; 5.1 m/s)
Visibility: 6 or more miles (10+ km)
Ceiling: 3500 feet AGL
Clouds: few clouds at 1700 feet AGL
broken clouds at 3500 feet AGL
Weather: no significant weather observed at this time

METAR text: LTBA 180650Z 01008KT 9999 FEW017 BKN035 11/07 Q1022 NOSIG RMK RWY17L 03009KT 350V070 RWY05 01008KT 330V040 RWY23 02007KT 350V060
Conditions at: LTBA (ISTANBUL/ATATURK, TR) observed 0650 UTC 18 April 2019
Temperature: 11.0°C (52°F)
Dewpoint: 7.0°C (45°F) [RH = 76%]
Pressure (altimeter): 30.18 inches Hg (1022.0 mb)
Winds: from the N (10 degrees) at 9 MPH (8 knots; 4.1 m/s)
Visibility: 6 or more miles (10+ km)
Ceiling: 3500 feet AGL
Clouds: few clouds at 1700 feet AGL
broken clouds at 3500 feet AGL
Weather: no significant weather observed at this time

METAR text: LTBA 180620Z 35006KT 330V030 9999 BKN035 10/07 Q1022 RESHRA NOSIG RMK RWY17L 36007KT 340V040 RWY05 35006KT 320V020 RWY23 01007KT 330V060
Conditions at: LTBA (ISTANBUL/ATATURK, TR) observed 0620 UTC 18 April 2019
Temperature: 10.0°C (50°F)
Dewpoint: 7.0°C (45°F) [RH = 82%]
Pressure (altimeter): 30.18 inches Hg (1022.0 mb)
Winds: from the N (350 degrees) at 7 MPH (6 knots; 3.1 m/s)
Visibility: 6 or more miles (10+ km)
Ceiling: 3500 feet AGL
Clouds: broken clouds at 3500 feet AGL
Weather: no significant weather observed at this time

METAR text: LTBA 180550Z 36008KT 340V050 9999 -SHRA FEW018 BKN035 10/07 Q1021 NOSIG RMK RWY17L 01007KT 340V050 RWY05 35007KT RWY23 01007KT
Conditions at: LTBA (ISTANBUL/ATATURK, TR) observed 0550 UTC 18 April 2019
Temperature: 10.0°C (50°F)
Dewpoint: 7.0°C (45°F) [RH = 82%]
Pressure (altimeter): 30.15 inches Hg (1021.0 mb)
Winds: from the N (360 degrees) at 9 MPH (8 knots; 4.1 m/s)
Visibility: 6 or more miles (10+ km)
Ceiling: 3500 feet AGL
Clouds: few clouds at 1800 feet AGL
broken clouds at 3500 feet AGL
Weather: -SHRA  (light rain showers)

METAR text: LTBA 180520Z 35009KT 9999 -SHRA FEW018 BKN030 09/07 Q1021 NOSIG RMK RWY17L 36007KT RWY05 34008KT RWY23 01009KT
Conditions at: LTBA (ISTANBUL/ATATURK, TR) observed 0520 UTC 18 April 2019
Temperature: 9.0°C (48°F)
Dewpoint: 7.0°C (45°F) [RH = 87%]
Pressure (altimeter): 30.15 inches Hg (1021.0 mb)
Winds: from the N (350 degrees) at 10 MPH (9 knots; 4.6 m/s)
Visibility: 6 or more miles (10+ km)
Ceiling: 3000 feet AGL
Clouds: few clouds at 1800 feet AGL
broken clouds at 3000 feet AGL
Weather: -SHRA  (light rain showers)

METAR text: LTBA 180501Z 35011KT 9999 -SHRA FEW019 BKN032 09/06 Q1021 NOSIG RMK RWY17L 01010KT RWY05 34010KT RWY23 01010KT
Conditions at: LTBA (ISTANBUL/ATATURK, TR) observed 0501 UTC 18 April 2019
Temperature: 9.0°C (48°F)
Dewpoint: 6.0°C (43°F) [RH = 81%]
Pressure (altimeter): 30.15 inches Hg (1021.0 mb)
Winds: from the N (350 degrees) at 13 MPH (11 knots; 5.7 m/s)
Visibility: 6 or more miles (10+ km)
Ceiling: 3200 feet AGL
Clouds: few clouds at 1900 feet AGL
broken clouds at 3200 feet AGL
Weather: -SHRA  (light rain showers)

METAR text: LTBA 180450Z 35011KT 9999 FEW019 BKN032 10/06 Q1021 NOSIG RMK RWY17L 36009KT RWY05 34010KT RWY23 36010KT
Conditions at: LTBA (ISTANBUL/ATATURK, TR) observed 0450 UTC 18 April 2019
Temperature: 10.0°C (50°F)
Dewpoint: 6.0°C (43°F) [RH = 76%]
Pressure (altimeter): 30.15 inches Hg (1021.0 mb)
Winds: from the N (350 degrees) at 13 MPH (11 knots; 5.7 m/s)
Visibility: 6 or more miles (10+ km)
Ceiling: 3200 feet AGL
Clouds: few clouds at 1900 feet AGL
broken clouds at 3200 feet AGL
Weather: no significant weather observed at this time

METAR text: LTBA 180420Z 35011KT 9999 FEW019 BKN032 09/06 Q1021 NOSIG RMK RWY17L 01008KT RWY05 34008KT RWY23 01010G22KT 340V080
Conditions at: LTBA (ISTANBUL/ATATURK, TR) observed 0420 UTC 18 April 2019
Temperature: 9.0°C (48°F)
Dewpoint: 6.0°C (43°F) [RH = 81%]
Pressure (altimeter): 30.15 inches Hg (1021.0 mb)
Winds: from the N (350 degrees) at 13 MPH (11 knots; 5.7 m/s)
Visibility: 6 or more miles (10+ km)
Ceiling: 3200 feet AGL
Clouds: few clouds at 1900 feet AGL
broken clouds at 3200 feet AGL
Weather: no significant weather observed at this time

METAR text: LTBA 180350Z 35009KT 9999 FEW018 BKN030 09/06 Q1021 NOSIG RMK RWY17L 01008KT 340V040 RWY05 34009KT RWY23 01009KT 340V040
Conditions at: LTBA (ISTANBUL/ATATURK, TR) observed 0350 UTC 18 April 2019
Temperature: 9.0°C (48°F)
Dewpoint: 6.0°C (43°F) [RH = 81%]
Pressure (altimeter): 30.15 inches Hg (1021.0 mb)
Winds: from the N (350 degrees) at 10 MPH (9 knots; 4.6 m/s)
Visibility: 6 or more miles (10+ km)
Ceiling: 3000 feet AGL
Clouds: few clouds at 1800 feet AGL
broken clouds at 3000 feet AGL
Weather: no significant weather observed at this time

METAR text: LTBA 180320Z 36009KT 9999 FEW014 BKN030 09/06 Q1020 NOSIG RMK RWY17L 01009KT RWY05 34007KT RWY23 01007KT
Conditions at: LTBA (ISTANBUL/ATATURK, TR) observed 0320 UTC 18 April 2019
Temperature: 9.0°C (48°F)
Dewpoint: 6.0°C (43°F) [RH = 81%]
Pressure (altimeter): 30.12 inches Hg (1020.0 mb)
Winds: from the N (360 degrees) at 10 MPH (9 knots; 4.6 m/s)
Visibility: 6 or more miles (10+ km)
Ceiling: 3000 feet AGL
Clouds: few clouds at 1400 feet AGL
broken clouds at 3000 feet AGL
Weather: no significant weather observed at this time

METAR text: LTBA 180250Z 35009KT 7000 FEW015 BKN030 09/07 Q1020 NOSIG RMK RWY17L 36008KT RWY05 34007KT RWY23 02007KT
Conditions at: LTBA (ISTANBUL/ATATURK, TR) observed 0250 UTC 18 April 2019
Temperature: 9.0°C (48°F)
Dewpoint: 7.0°C (45°F) [RH = 87%]
Pressure (altimeter): 30.12 inches Hg (1020.0 mb)
Winds: from the N (350 degrees) at 10 MPH (9 knots; 4.6 m/s)
Visibility: 4 miles ( 7 km)
Ceiling: 3000 feet AGL
Clouds: few clouds at 1500 feet AGL
broken clouds at 3000 feet AGL
Weather: no significant weather observed at this time

METAR text: LTBA 180220Z 01009KT 8000 FEW012 BKN030 10/07 Q1020 NOSIG RMK RWY17L 02007KT 350V050 RWY05 35007KT RWY23 02009KT
Conditions at: LTBA (ISTANBUL/ATATURK, TR) observed 0220 UTC 18 April 2019
Temperature: 10.0°C (50°F)
Dewpoint: 7.0°C (45°F) [RH = 82%]
Pressure (altimeter): 30.12 inches Hg (1020.0 mb)
Winds: from the N (10 degrees) at 10 MPH (9 knots; 4.6 m/s)
Visibility: 5 miles ( 8 km)
Ceiling: 3000 feet AGL
Clouds: few clouds at 1200 feet AGL
broken clouds at 3000 feet AGL
Weather: no significant weather observed at this time

METAR text: LTBA 180150Z 35008KT 8000 FEW011 BKN035 09/07 Q1020 NOSIG RMK RWY17L 01007KT RWY05 34006KT RWY23 34005KT 320V020
Conditions at: LTBA (ISTANBUL/ATATURK, TR) observed 0150 UTC 18 April 2019
Temperature: 9.0°C (48°F)
Dewpoint: 7.0°C (45°F) [RH = 87%]
Pressure (altimeter): 30.12 inches Hg (1020.0 mb)
Winds: from the N (350 degrees) at 9 MPH (8 knots; 4.1 m/s)
Visibility: 5 miles ( 8 km)
Ceiling: 3500 feet AGL
Clouds: few clouds at 1100 feet AGL
broken clouds at 3500 feet AGL
Weather: no significant weather observed at this time

METAR text: LTBA 180120Z 35006KT 9999 FEW020 BKN035 08/06 Q1020 NOSIG RMK RWY17L 34004KT RWY05 33005KT RWY23 36005KT
Conditions at: LTBA (ISTANBUL/ATATURK, TR) observed 0120 UTC 18 April 2019
Temperature: 8.0°C (46°F)
Dewpoint: 6.0°C (43°F) [RH = 87%]
Pressure (altimeter): 30.12 inches Hg (1020.0 mb)
Winds: from the N (350 degrees) at 7 MPH (6 knots; 3.1 m/s)
Visibility: 6 or more miles (10+ km)
Ceiling: 3500 feet AGL
Clouds: few clouds at 2000 feet AGL
broken clouds at 3500 feet AGL
Weather: no significant weather observed at this time

METAR text: LTBA 180050Z 35006KT CAVOK 08/06 Q1020 NOSIG RMK RWY17L 36005KT RWY05 35005KT RWY23 02007KT
Conditions at: LTBA (ISTANBUL/ATATURK, TR) observed 0050 UTC 18 April 2019
Temperature: 8.0°C (46°F)
Dewpoint: 6.0°C (43°F) [RH = 87%]
Pressure (altimeter): 30.12 inches Hg (1020.0 mb)
Winds: from the N (350 degrees) at 7 MPH (6 knots; 3.1 m/s)
Visibility: 6 or more miles (10+ km)
Ceiling: ceiling and visibility are OK
Clouds: unknown
Weather: no significant weather observed at this time

METAR text: LTBA 180020Z 35007KT CAVOK 07/05 Q1020 NOSIG RMK RWY17L 35005KT RWY05 35008KT RWY23 02007KT
Conditions at: LTBA (ISTANBUL/ATATURK, TR) observed 0020 UTC 18 April 2019
Temperature: 7.0°C (45°F)
Dewpoint: 5.0°C (41°F) [RH = 87%]
Pressure (altimeter): 30.12 inches Hg (1020.0 mb)
Winds: from the N (350 degrees) at 8 MPH (7 knots; 3.6 m/s)
Visibility: 6 or more miles (10+ km)
Ceiling: ceiling and visibility are OK
Clouds: unknown
Weather: no significant weather observed at this time

METAR text: LTBA 172350Z 35008KT CAVOK 08/05 Q1020 NOSIG RMK RWY17L 36006KT RWY05 34006KT RWY23 01007KT
Conditions at: LTBA (ISTANBUL/ATATURK, TR) observed 2350 UTC 17 April 2019
Temperature: 8.0°C (46°F)
Dewpoint: 5.0°C (41°F) [RH = 81%]
Pressure (altimeter): 30.12 inches Hg (1020.0 mb)
Winds: from the N (350 degrees) at 9 MPH (8 knots; 4.1 m/s)
Visibility: 6 or more miles (10+ km)
Ceiling: ceiling and visibility are OK
Clouds: unknown
Weather: no significant weather observed at this time

METAR text: LTBA 172320Z 01010KT CAVOK 09/06 Q1020 NOSIG RMK RWY17L 36008KT RWY05 35007KT RWY23 02009KT
Conditions at: LTBA (ISTANBUL/ATATURK, TR) observed 2320 UTC 17 April 2019
Temperature: 9.0°C (48°F)
Dewpoint: 6.0°C (43°F) [RH = 81%]
Pressure (altimeter): 30.12 inches Hg (1020.0 mb)
Winds: from the N (10 degrees) at 12 MPH (10 knots; 5.1 m/s)
Visibility: 6 or more miles (10+ km)
Ceiling: ceiling and visibility are OK
Clouds: unknown
Weather: no significant weather observed at this time

METAR text: LTBA 172250Z 01007KT CAVOK 09/05 Q1020 NOSIG RMK RWY17L 36007KT RWY05 36008KT RWY23 02006KT
Conditions at: LTBA (ISTANBUL/ATATURK, TR) observed 2250 UTC 17 April 2019
Temperature: 9.0°C (48°F)
Dewpoint: 5.0°C (41°F) [RH = 76%]
Pressure (altimeter): 30.12 inches Hg (1020.0 mb)
Winds: from the N (10 degrees) at 8 MPH (7 knots; 3.6 m/s)
Visibility: 6 or more miles (10+ km)
Ceiling: ceiling and visibility are OK
Clouds: unknown
Weather: no significant weather observed at this time

METAR text: LTBA 172220Z 02007KT CAVOK 10/05 Q1020 NOSIG RMK RWY17L 02007KT RWY05 01006KT RWY23 04006KT
Conditions at: LTBA (ISTANBUL/ATATURK, TR) observed 2220 UTC 17 April 2019
Temperature: 10.0°C (50°F)
Dewpoint: 5.0°C (41°F) [RH = 71%]
Pressure (altimeter): 30.12 inches Hg (1020.0 mb)
Winds: from the NNE (20 degrees) at 8 MPH (7 knots; 3.6 m/s)
Visibility: 6 or more miles (10+ km)
Ceiling: ceiling and visibility are OK
Clouds: unknown
Weather: no significant weather observed at this time

METAR text: LTBA 172150Z 02007KT CAVOK 10/05 Q1020 NOSIG RMK RWY17L 03006KT 360V070 RWY05 01009KT RWY23 04008KT
Conditions at: LTBA (ISTANBUL/ATATURK, TR) observed 2150 UTC 17 April 2019
Temperature: 10.0°C (50°F)
Dewpoint: 5.0°C (41°F) [RH = 71%]
Pressure (altimeter): 30.12 inches Hg (1020.0 mb)
Winds: from the NNE (20 degrees) at 8 MPH (7 knots; 3.6 m/s)
Visibility: 6 or more miles (10+ km)
Ceiling: ceiling and visibility are OK
Clouds: unknown
Weather: no significant weather observed at this time

METAR text: LTBA 172120Z 01008KT CAVOK 10/06 Q1020 NOSIG RMK RWY17L 02007KT RWY05 36008KT RWY23 03010KT
Conditions at: LTBA (ISTANBUL/ATATURK, TR) observed 2120 UTC 17 April 2019
Temperature: 10.0°C (50°F)
Dewpoint: 6.0°C (43°F) [RH = 76%]
Pressure (altimeter): 30.12 inches Hg (1020.0 mb)
Winds: from the N (10 degrees) at 9 MPH (8 knots; 4.1 m/s)
Visibility: 6 or more miles (10+ km)
Ceiling: ceiling and visibility are OK
Clouds: unknown
Weather: no significant weather observed at this time

METAR text: LTBA 172050Z 02008KT CAVOK 10/06 Q1020 NOSIG RMK RWY17L 03008KT RWY05 01008KT RWY23 04009KT 010V070
Conditions at: LTBA (ISTANBUL/ATATURK, TR) observed 2050 UTC 17 April 2019
Temperature: 10.0°C (50°F)
Dewpoint: 6.0°C (43°F) [RH = 76%]
Pressure (altimeter): 30.12 inches Hg (1020.0 mb)
Winds: from the NNE (20 degrees) at 9 MPH (8 knots; 4.1 m/s)
Visibility: 6 or more miles (10+ km)
Ceiling: ceiling and visibility are OK
Clouds: unknown
Weather: no significant weather observed at this time

METAR text: LTBA 172020Z 02008KT CAVOK 10/06 Q1020 NOSIG RMK RWY17L 03008KT RWY05 01009KT RWY23 05008KT
Conditions at: LTBA (ISTANBUL/ATATURK, TR) observed 2020 UTC 17 April 2019
Temperature: 10.0°C (50°F)
Dewpoint: 6.0°C (43°F) [RH = 76%]
Pressure (altimeter): 30.12 inches Hg (1020.0 mb)
Winds: from the NNE (20 degrees) at 9 MPH (8 knots; 4.1 m/s)
Visibility: 6 or more miles (10+ km)
Ceiling: ceiling and visibility are OK
Clouds: unknown
Weather: no significant weather observed at this time

METAR text: LTBA 171950Z 01010KT CAVOK 10/05 Q1019 NOSIG RMK RWY17L 01008KT RWY05 36010KT RWY23 03009KT 360V070
Conditions at: LTBA (ISTANBUL/ATATURK, TR) observed 1950 UTC 17 April 2019
Temperature: 10.0°C (50°F)
Dewpoint: 5.0°C (41°F) [RH = 71%]
Pressure (altimeter): 30.09 inches Hg (1019.0 mb)
Winds: from the N (10 degrees) at 12 MPH (10 knots; 5.1 m/s)
Visibility: 6 or more miles (10+ km)
Ceiling: ceiling and visibility are OK
Clouds: unknown
Weather: no significant weather observed at this time

METAR text: LTBA 171920Z 01008KT CAVOK 10/06 Q1019 NOSIG RMK RWY17L 01009KT 330V030 RWY05 36008KT RWY23 03008KT
Conditions at: LTBA (ISTANBUL/ATATURK, TR) observed 1920 UTC 17 April 2019
Temperature: 10.0°C (50°F)
Dewpoint: 6.0°C (43°F) [RH = 76%]
Pressure (altimeter): 30.09 inches Hg (1019.0 mb)
Winds: from the N (10 degrees) at 9 MPH (8 knots; 4.1 m/s)
Visibility: 6 or more miles (10+ km)
Ceiling: ceiling and visibility are OK
Clouds: unknown
Weather: no significant weather observed at this time

METAR text: LTBA 171850Z 02008KT CAVOK 10/07 Q1019 NOSIG RMK RWY17L 01007KT 350V050 RWY05 01008KT RWY23 03008KT
Conditions at: LTBA (ISTANBUL/ATATURK, TR) observed 1850 UTC 17 April 2019
Temperature: 10.0°C (50°F)
Dewpoint: 7.0°C (45°F) [RH = 82%]
Pressure (altimeter): 30.09 inches Hg (1019.0 mb)
Winds: from the NNE (20 degrees) at 9 MPH (8 knots; 4.1 m/s)
Visibility: 6 or more miles (10+ km)
Ceiling: ceiling and visibility are OK
Clouds: unknown
Weather: no significant weather observed at this time

METAR text: LTBA 171820Z 35010KT CAVOK 10/07 Q1019 NOSIG RMK RWY17L 36009KT RWY05 35006KT RWY23 02009KT 330V040
Conditions at: LTBA (ISTANBUL/ATATURK, TR) observed 1820 UTC 17 April 2019
Temperature: 10.0°C (50°F)
Dewpoint: 7.0°C (45°F) [RH = 82%]
Pressure (altimeter): 30.09 inches Hg (1019.0 mb)
Winds: from the N (350 degrees) at 12 MPH (10 knots; 5.1 m/s)
Visibility: 6 or more miles (10+ km)
Ceiling: ceiling and visibility are OK
Clouds: unknown
Weather: no significant weather observed at this time

METAR text: LTBA 171750Z 01009KT CAVOK 11/05 Q1019 NOSIG RMK RWY17L 36008KT RWY05 36009KT RWY23 03008KT
Conditions at: LTBA (ISTANBUL/ATATURK, TR) observed 1750 UTC 17 April 2019
Temperature: 11.0°C (52°F)
Dewpoint: 5.0°C (41°F) [RH = 66%]
Pressure (altimeter): 30.09 inches Hg (1019.0 mb)
Winds: from the N (10 degrees) at 10 MPH (9 knots; 4.6 m/s)
Visibility: 6 or more miles (10+ km)
Ceiling: ceiling and visibility are OK
Clouds: unknown
Weather: no significant weather observed at this time

METAR text: LTBA 171720Z 36010KT CAVOK 11/04 Q1018 NOSIG RMK RWY17L 02009KT RWY05 35008KT RWY23 03010KT
Conditions at: LTBA (ISTANBUL/ATATURK, TR) observed 1720 UTC 17 April 2019
Temperature: 11.0°C (52°F)
Dewpoint: 4.0°C (39°F) [RH = 62%]
Pressure (altimeter): 30.06 inches Hg (1018.0 mb)
Winds: from the N (360 degrees) at 12 MPH (10 knots; 5.1 m/s)
Visibility: 6 or more miles (10+ km)
Ceiling: ceiling and visibility are OK
Clouds: unknown
Weather: no significant weather observed at this time

METAR text: LTBA 171650Z 35010KT CAVOK 11/05 Q1018 NOSIG RMK RWY17L 36009KT RWY05 35008KT RWY23 36008KT
Conditions at: LTBA (ISTANBUL/ATATURK, TR) observed 1650 UTC 17 April 2019
Temperature: 11.0°C (52°F)
Dewpoint: 5.0°C (41°F) [RH = 66%]
Pressure (altimeter): 30.06 inches Hg (1018.0 mb)
Winds: from the N (350 degrees) at 12 MPH (10 knots; 5.1 m/s)
Visibility: 6 or more miles (10+ km)
Ceiling: ceiling and visibility are OK
Clouds: unknown
Weather: no significant weather observed at this time

METAR text: LTBA 171620Z 35010KT CAVOK 12/04 Q1018 NOSIG RMK RWY17L 01010KT 340V040 RWY05 36009KT RWY23 01009KT
Conditions at: LTBA (ISTANBUL/ATATURK, TR) observed 1620 UTC 17 April 2019
Temperature: 12.0°C (54°F)
Dewpoint: 4.0°C (39°F) [RH = 58%]
Pressure (altimeter): 30.06 inches Hg (1018.0 mb)
Winds: from the N (350 degrees) at 12 MPH (10 knots; 5.1 m/s)
Visibility: 6 or more miles (10+ km)
Ceiling: ceiling and visibility are OK
Clouds: unknown
Weather: no significant weather observed at this time

METAR text: LTBA 171550Z 26005KT CAVOK 13/05 Q1018 NOSIG RMK RWY17L 01009KT 320V040 RWY05 25004KT RWY23 25006KT
Conditions at: LTBA (ISTANBUL/ATATURK, TR) observed 1550 UTC 17 April 2019
Temperature: 13.0°C (55°F)
Dewpoint: 5.0°C (41°F) [RH = 58%]
Pressure (altimeter): 30.06 inches Hg (1018.0 mb)
Winds: from the W (260 degrees) at 6 MPH (5 knots; 2.6 m/s)
Visibility: 6 or more miles (10+ km)
Ceiling: ceiling and visibility are OK
Clouds: unknown
Weather: no significant weather observed at this time

METAR text: LTBA 171520Z 22005KT CAVOK 13/05 Q1018 NOSIG RMK RWY17L 21006KT RWY05 21004KT RWY23 24006KT
Conditions at: LTBA (ISTANBUL/ATATURK, TR) observed 1520 UTC 17 April 2019
Temperature: 13.0°C (55°F)
Dewpoint: 5.0°C (41°F) [RH = 58%]
Pressure (altimeter): 30.06 inches Hg (1018.0 mb)
Winds: from the SW (220 degrees) at 6 MPH (5 knots; 2.6 m/s)
Visibility: 6 or more miles (10+ km)
Ceiling: ceiling and visibility are OK
Clouds: unknown
Weather: no significant weather observed at this time

METAR text: LTBA 171450Z 18004KT CAVOK 13/05 Q1017 NOSIG RMK RWY17L 19005KT 140V220 RWY05 19004KT 160V220 RWY23 24005KT 210V270
Conditions at: LTBA (ISTANBUL/ATATURK, TR) observed 1450 UTC 17 April 2019
Temperature: 13.0°C (55°F)
Dewpoint: 5.0°C (41°F) [RH = 58%]
Pressure (altimeter): 30.03 inches Hg (1017.0 mb)
Winds: from the S (180 degrees) at 5 MPH (4 knots; 2.1 m/s)
Visibility: 6 or more miles (10+ km)
Ceiling: ceiling and visibility are OK
Clouds: unknown
Weather: no significant weather observed at this time

METAR text: LTBA 171420Z 23005KT 200V260 9999 FEW035 SCT100 13/04 Q1017 NOSIG RMK RWY17L 23004KT 190V250 RWY05 21004KT 170V250 RWY23 24005KT 210V290
Conditions at: LTBA (ISTANBUL/ATATURK, TR) observed 1420 UTC 17 April 2019
Temperature: 13.0°C (55°F)
Dewpoint: 4.0°C (39°F) [RH = 54%]
Pressure (altimeter): 30.03 inches Hg (1017.0 mb)
Winds: from the SW (230 degrees) at 6 MPH (5 knots; 2.6 m/s)
Visibility: 6 or more miles (10+ km)
Ceiling: at least 12,000 feet AGL
Clouds: few clouds at 3500 feet AGL
scattered clouds at 10000 feet AGL
Weather: no significant weather observed at this time

METAR text: LTBA 171350Z 24005KT 9999 SCT030 BKN090 12/05 Q1017 NOSIG RMK RWY17L 24006KT RWY05 22004KT 200V260 RWY23 25006KT
Conditions at: LTBA (ISTANBUL/ATATURK, TR) observed 1350 UTC 17 April 2019
Temperature: 12.0°C (54°F)
Dewpoint: 5.0°C (41°F) [RH = 62%]
Pressure (altimeter): 30.03 inches Hg (1017.0 mb)
Winds: from the WSW (240 degrees) at 6 MPH (5 knots; 2.6 m/s)
Visibility: 6 or more miles (10+ km)
Ceiling: 9000 feet AGL
Clouds: scattered clouds at 3000 feet AGL
broken clouds at 9000 feet AGL
Weather: no significant weather observed at this time

METAR text: LTBA 171320Z 21008KT 9999 SCT030 BKN090 12/07 Q1017 NOSIG RMK RWY17L 24005KT 190V300 RWY05 21008KT 180V260 RWY23 17005KT 090V210
Conditions at: LTBA (ISTANBUL/ATATURK, TR) observed 1320 UTC 17 April 2019
Temperature: 12.0°C (54°F)
Dewpoint: 7.0°C (45°F) [RH = 71%]
Pressure (altimeter): 30.03 inches Hg (1017.0 mb)
Winds: from the SSW (210 degrees) at 9 MPH (8 knots; 4.1 m/s)
Visibility: 6 or more miles (10+ km)
Ceiling: 9000 feet AGL
Clouds: scattered clouds at 3000 feet AGL
broken clouds at 9000 feet AGL
Weather: no significant weather observed at this time

METAR text: LTBA 171250Z 23005KT 190V260 CAVOK 12/05 Q1017 NOSIG RMK RWY17L 24006KT RWY05 21004KT 180V240 RWY23 24005KT 200V270
Conditions at: LTBA (ISTANBUL/ATATURK, TR) observed 1250 UTC 17 April 2019
Temperature: 12.0°C (54°F)
Dewpoint: 5.0°C (41°F) [RH = 62%]
Pressure (altimeter): 30.03 inches Hg (1017.0 mb)
Winds: from the SW (230 degrees) at 6 MPH (5 knots; 2.6 m/s)
Visibility: 6 or more miles (10+ km)
Ceiling: ceiling and visibility are OK
Clouds: unknown
Weather: no significant weather observed at this time

METAR text: LTBA 171220Z 20008KT 170V230 CAVOK 12/07 Q1017 NOSIG RMK RWY17L 21009KT RWY05 19007KT RWY23 23008KT
Conditions at: LTBA (ISTANBUL/ATATURK, TR) observed 1220 UTC 17 April 2019
Temperature: 12.0°C (54°F)
Dewpoint: 7.0°C (45°F) [RH = 71%]
Pressure (altimeter): 30.03 inches Hg (1017.0 mb)
Winds: from the SSW (200 degrees) at 9 MPH (8 knots; 4.1 m/s)
Visibility: 6 or more miles (10+ km)
Ceiling: ceiling and visibility are OK
Clouds: unknown
Weather: no significant weather observed at this time

METAR text: LTBA 171150Z 19008KT 170V230 CAVOK 13/07 Q1017 NOSIG RMK RWY17L 21008KT 170V230 RWY05 20007KT 150V220 RWY23 21007KT
Conditions at: LTBA (ISTANBUL/ATATURK, TR) observed 1150 UTC 17 April 2019
Temperature: 13.0°C (55°F)
Dewpoint: 7.0°C (45°F) [RH = 67%]
Pressure (altimeter): 30.03 inches Hg (1017.0 mb)
Winds: from the S (190 degrees) at 9 MPH (8 knots; 4.1 m/s)
Visibility: 6 or more miles (10+ km)
Ceiling: ceiling and visibility are OK
Clouds: unknown
Weather: no significant weather observed at this time

METAR text: LTBA 171120Z 21008KT CAVOK 12/07 Q1017 NOSIG RMK RWY17L 21008KT RWY05 19007KT RWY23 22008KT
Conditions at: LTBA (ISTANBUL/ATATURK, TR) observed 1120 UTC 17 April 2019
Temperature: 12.0°C (54°F)
Dewpoint: 7.0°C (45°F) [RH = 71%]
Pressure (altimeter): 30.03 inches Hg (1017.0 mb)
Winds: from the SSW (210 degrees) at 9 MPH (8 knots; 4.1 m/s)
Visibility: 6 or more miles (10+ km)
Ceiling: ceiling and visibility are OK
Clouds: unknown
Weather: no significant weather observed at this time

METAR text: LTBA 171050Z 19007KT 170V230 CAVOK 12/07 Q1018 NOSIG RMK RWY17L 19008KT 160V230 RWY05 18006KT 160V220 RWY23 21007KT
Conditions at: LTBA (ISTANBUL/ATATURK, TR) observed 1050 UTC 17 April 2019
Temperature: 12.0°C (54°F)
Dewpoint: 7.0°C (45°F) [RH = 71%]
Pressure (altimeter): 30.06 inches Hg (1018.0 mb)
Winds: from the S (190 degrees) at 8 MPH (7 knots; 3.6 m/s)
Visibility: 6 or more miles (10+ km)
Ceiling: ceiling and visibility are OK
Clouds: unknown
Weather: no significant weather observed at this time

METAR text: LTBA 171020Z 20008KT CAVOK 12/06 Q1018 NOSIG RMK RWY17L 21007KT RWY05 19007KT 160V220 RWY23 19007KT 090V240
Conditions at: LTBA (ISTANBUL/ATATURK, TR) observed 1020 UTC 17 April 2019
Temperature: 12.0°C (54°F)
Dewpoint: 6.0°C (43°F) [RH = 67%]
Pressure (altimeter): 30.06 inches Hg (1018.0 mb)
Winds: from the SSW (200 degrees) at 9 MPH (8 knots; 4.1 m/s)
Visibility: 6 or more miles (10+ km)
Ceiling: ceiling and visibility are OK
Clouds: unknown
Weather: no significant weather observed at this time

METAR text: LTBA 170950Z 20008KT 160V240 CAVOK 13/07 Q1018 NOSIG RMK RWY17L 21008KT RWY05 20007KT RWY23 19008KT 160V230
Conditions at: LTBA (ISTANBUL/ATATURK, TR) observed 0950 UTC 17 April 2019
Temperature: 13.0°C (55°F)
Dewpoint: 7.0°C (45°F) [RH = 67%]
Pressure (altimeter): 30.06 inches Hg (1018.0 mb)
Winds: from the SSW (200 degrees) at 9 MPH (8 knots; 4.1 m/s)
Visibility: 6 or more miles (10+ km)
Ceiling: ceiling and visibility are OK
Clouds: unknown
Weather: no significant weather observed at this time

METAR text: LTBA 170920Z 19007KT 160V240 CAVOK 12/06 Q1018 NOSIG RMK RWY17L VRB06KT RWY05 18005KT 140V220 RWY23 21007KT 170V240
Conditions at: LTBA (ISTANBUL/ATATURK, TR) observed 0920 UTC 17 April 2019
Temperature: 12.0°C (54°F)
Dewpoint: 6.0°C (43°F) [RH = 67%]
Pressure (altimeter): 30.06 inches Hg (1018.0 mb)
Winds: from the S (190 degrees) at 8 MPH (7 knots; 3.6 m/s)
Visibility: 6 or more miles (10+ km)
Ceiling: ceiling and visibility are OK
Clouds: unknown
Weather: no significant weather observed at this time

METAR text: LTBA 170850Z 18006KT 140V220 CAVOK 12/06 Q1018 NOSIG RMK RWY17L 18007KT 140V210 RWY05 15005KT 120V190 RWY23 18006KT 140V240
Conditions at: LTBA (ISTANBUL/ATATURK, TR) observed 0850 UTC 17 April 2019
Temperature: 12.0°C (54°F)
Dewpoint: 6.0°C (43°F) [RH = 67%]
Pressure (altimeter): 30.06 inches Hg (1018.0 mb)
Winds: from the S (180 degrees) at 7 MPH (6 knots; 3.1 m/s)
Visibility: 6 or more miles (10+ km)
Ceiling: ceiling and visibility are OK
Clouds: unknown
Weather: no significant weather observed at this time

METAR text: LTBA 170820Z 17006KT 130V220 CAVOK 12/06 Q1018 NOSIG RMK RWY17L 18006KT 140V220 RWY05 15005KT 110V190 RWY23 18005KT 160V280
Conditions at: LTBA (ISTANBUL/ATATURK, TR) observed 0820 UTC 17 April 2019
Temperature: 12.0°C (54°F)
Dewpoint: 6.0°C (43°F) [RH = 67%]
Pressure (altimeter): 30.06 inches Hg (1018.0 mb)
Winds: from the S (170 degrees) at 7 MPH (6 knots; 3.1 m/s)
Visibility: 6 or more miles (10+ km)
Ceiling: ceiling and visibility are OK
Clouds: unknown
Weather: no significant weather observed at this time

METAR text: LTBA 170750Z 13003KT 110V170 CAVOK 11/05 Q1018 NOSIG RMK RWY17L 18004KT 130V200 RWY05 12005KT 080V160 RWY23 14006KT 110V180
Conditions at: LTBA (ISTANBUL/ATATURK, TR) observed 0750 UTC 17 April 2019
Temperature: 11.0°C (52°F)
Dewpoint: 5.0°C (41°F) [RH = 66%]
Pressure (altimeter): 30.06 inches Hg (1018.0 mb)
Winds: from the SE (130 degrees) at 3 MPH (3 knots; 1.5 m/s)
Visibility: 6 or more miles (10+ km)
Ceiling: ceiling and visibility are OK
Clouds: unknown
Weather: no significant weather observed at this time

METAR text: LTBA 170720Z 13007KT CAVOK 11/04 Q1017 NOSIG RMK RWY17L 17006KT 130V210 RWY05 12007KT 100V160 RWY23 16007KT 130V190
Conditions at: LTBA (ISTANBUL/ATATURK, TR) observed 0720 UTC 17 April 2019
Temperature: 11.0°C (52°F)
Dewpoint: 4.0°C (39°F) [RH = 62%]
Pressure (altimeter): 30.03 inches Hg (1017.0 mb)
Winds: from the SE (130 degrees) at 8 MPH (7 knots; 3.6 m/s)
Visibility: 6 or more miles (10+ km)
Ceiling: ceiling and visibility are OK
Clouds: unknown
Weather: no significant weather observed at this time

METAR text: LTBA 170650Z 13006KT 100V160 CAVOK 11/05 Q1017 NOSIG RMK RWY17L 15006KT RWY05 13006KT 100V160 RWY23 15007KT
Conditions at: LTBA (ISTANBUL/ATATURK, TR) observed 0650 UTC 17 April 2019
Temperature: 11.0°C (52°F)
Dewpoint: 5.0°C (41°F) [RH = 66%]
Pressure (altimeter): 30.03 inches Hg (1017.0 mb)
Winds: from the SE (130 degrees) at 7 MPH (6 knots; 3.1 m/s)
Visibility: 6 or more miles (10+ km)
Ceiling: ceiling and visibility are OK
Clouds: unknown
Weather: no significant weather observed at this time

Forecast for: LTBA (ISTANBUL/ATATURK, TR)
Text: TAF LTBA 181640Z 1818/1924 01012KT 9999 SCT017 BKN030
Forecast period: 1800 UTC 18 April 2019 to 0900 UTC 19 April 2019
Forecast type: FROM: standard forecast or significant change
Winds: from the N (10 degrees) at 14 MPH (12 knots; 6.2 m/s)
Visibility: 6 or more miles 10+ km)
Ceiling: 3000 feet AGL
Clouds: scattered clouds at 1700 feet AGL
broken clouds at 3000 feet AGL
Weather: no significant weather forecast for this period
Text: TEMPO 1818/1822 02015G25KT -SHRA
Forecast period: 1800 to 2200 UTC 18 April 2019
Forecast type: TEMPORARY: The following changes expected for less than half the time period
Winds: from the NNE (20 degrees) at 17 MPH (15 knots; 7.7 m/s)
gusting to 29 MPH (25 knots; 12.9 m/s)
Visibility: missing
Ceiling: unknown
Clouds: missing
Weather: -SHRA  (light rain showers)
Text: TEMPO 1900/1904 -SHRA
Forecast period: 0000 to 0400 UTC 19 April 2019
Forecast type: TEMPORARY: The following changes expected for less than half the time period
Visibility: missing
Ceiling: unknown
Clouds: missing
Weather: -SHRA  (light rain showers)
Text: BECMG 1909/1912 SCT040 BKN090
Forecast period: 0900 to 1800 UTC 19 April 2019
Forecast type: BECOMING: Conditions expected to become as follows by 1200 UTC 19 April 2019
Winds: from the N (10 degrees) at 14 MPH (12 knots; 6.2 m/s)
Visibility: 6 or more miles 10+ km)
Ceiling: 9000 feet AGL
Clouds: scattered clouds at 4000 feet AGL
broken clouds at 9000 feet AGL
Weather: no significant weather forecast for this period
Text: BECMG 1918/1921 BKN020 BKN070
Forecast period: 1800 UTC 19 April 2019 to 0000 UTC 20 April 2019
Forecast type: BECOMING: Conditions expected to become as follows by 2100 UTC 19 April 2019
Winds: from the N (10 degrees) at 14 MPH (12 knots; 6.2 m/s)
Visibility: 6 or more miles 10+ km)
Ceiling: 2000 feet AGL
Clouds: broken clouds at 2000 feet AGL
broken clouds at 7000 feet AGL
Weather: no significant weather forecast for this period